Latest Weather Observations for Troughton Island

IDW60801

Issued at 6:03 am WST Tuesday 27 September 2016 (issued every 30 minutes, with the page automatically refreshed every 10 minutes)

About weather observations | Map of weather stations | Latest weather observations for WA | Other Formats
Station Details ID: 001007 Name: TROUGHTON ISLAND Lat: -13.75 Lon: 126.15 Height: 6.0 m
Data from the previous 72 hours. | See also: Recent months at Troughton Island
Date/Time
WST
Temp
°C
App
Temp
°C
Dew
Point
°C
Rel
Hum
%
Delta-T
°C
Wind Press
QNH
hPa
Press
MSL
hPa
Rain since
9am
mm
Dir  Spd
km/h
Gust
km/h
Spd
kts
Gust
kts
27/06:00am 28.4 31.9 24.8 81 2.5 WSW 15 17 8 9 1011.3 1011.2 0.0
27/05:30am 27.8 31.2 24.6 83 2.2 WSW 15 19 8 10 1011.1 1011.0 0.0
27/05:00am 27.8 31.2 24.6 83 2.2 SW 15 19 8 10 1011.0 1010.9 0.0
27/04:30am 27.8 30.5 24.8 84 2.1 SW 19 22 10 12 1010.7 1010.6 0.0
27/04:00am 27.7 30.4 24.7 84 2.1 SW 19 24 10 13 1010.4 1010.3 0.0
27/03:30am 27.9 30.1 24.9 84 2.1 SW 22 26 12 14 1010.0 1009.9 0.0
27/03:00am 27.8 29.7 25.0 85 2.0 SW 24 28 13 15 1009.7 1009.6 0.0
27/02:30am 27.9 29.9 25.1 85 2.0 SW 24 28 13 15 1009.7 1009.6 0.0
27/02:00am 27.8 29.2 24.8 84 2.1 WSW 26 30 14 16 1009.6 1009.5 0.0
27/01:30am 28.0 29.5 25.0 84 2.1 WSW 26 30 14 16 1009.6 1009.5 0.0
27/01:00am 27.9 29.0 24.3 81 2.5 WSW 26 30 14 16 1009.8 1009.7 0.0
27/12:30am 28.0 28.9 24.0 79 2.8 WSW 26 30 14 16 1010.2 1010.1 0.0
27/12:00am 28.0 29.1 23.6 77 3.0 WSW 24 30 13 16 1010.5 1010.4 0.0
 
Date/Time
WST
Temp
°C
App
Temp
°C
Dew
Point
°C
Rel
Hum
%
Delta-T
°C
Wind Press
QNH
hPa
Press
MSL
hPa
Rain since
9am
mm
Dir  Spd
km/h
Gust
km/h
Spd
kts
Gust
kts
26/11:30pm 28.1 29.0 23.9 78 2.9 WSW 26 30 14 16 1010.7 1010.6 0.0
26/11:00pm 28.2 29.4 23.8 77 3.0 WSW 24 28 13 15 1011.1 1011.0 0.0
26/10:30pm 28.0 29.2 23.8 78 2.9 WSW 24 28 13 15 1011.5 1011.4 0.0
26/10:00pm 28.2 29.2 24.2 79 2.8 WSW 26 30 14 16 1011.7 1011.6 0.0
26/09:30pm 28.4 29.3 24.6 80 2.6 WSW 28 32 15 17 1011.7 1011.6 0.0
26/09:00pm 28.6 29.5 24.6 79 2.8 WSW 28 32 15 17 1011.5 1011.4 0.0
26/08:30pm 28.5 29.6 24.3 78 2.9 W 26 30 14 16 1011.4 1011.3 0.0
26/08:00pm 28.5 30.1 24.5 79 2.8 W 24 28 13 15 1011.1 1011.0 0.0
26/07:30pm 28.5 29.8 24.1 77 3.0 W 24 28 13 15 1010.6 1010.5 0.0
26/07:00pm 28.8 30.5 24.6 78 2.9 WNW 24 28 13 15 1010.4 1010.3 0.0
26/06:30pm 28.7 29.6 24.0 76 3.3 WNW 26 30 14 16 1009.8 1009.7 0.0
26/06:00pm 28.8 29.7 24.6 78 2.9 WNW 28 32 15 17 1009.5 1009.4 0.0
26/05:30pm 28.9 30.0 24.9 79 2.8 W 28 32 15 17 1009.0 1008.9 0.0
26/05:00pm 29.7 31.2 25.0 76 3.3 WNW 26 30 14 16 1008.9 1008.8 0.0
26/04:30pm 30.1 32.1 25.2 75 3.5 WNW 24 28 13 15 1008.5 1008.4 0.0
26/04:00pm 30.7 32.5 24.8 71 4.1 WNW 24 28 13 15 1008.3 1008.2 0.0
26/03:30pm 31.1 33.1 25.2 71 4.2 WNW 24 30 13 16 1008.2 1008.1 0.0
26/03:00pm 31.3 32.8 24.9 69 4.5 W 26 30 14 16 1008.4 1008.3 0.0
26/02:30pm 31.2 32.3 24.3 66 4.8 WNW 26 28 14 15 1008.5 1008.4 0.0
26/02:00pm 31.9 33.8 25.0 67 4.9 W 24 26 13 14 1008.6 1008.5 0.0
26/01:30pm 31.8 33.9 24.1 63 5.4 W 20 24 11 13 1008.6 1008.5 0.0
26/01:00pm 32.3 33.9 23.8 61 5.9 W 22 24 12 13 1008.7 1008.6 0.0
26/12:30pm 31.7 33.7 24.0 63 5.4 WSW 20 26 11 14 1008.9 1008.8 0.0
26/12:00pm 31.8 33.3 24.4 65 5.2 WSW 24 28 13 15 1009.2 1009.1 0.0
26/11:30am 31.5 33.5 23.9 64 5.3 W 20 24 11 13 1009.8 1009.7 0.0
26/11:00am 31.3 33.8 24.7 68 4.6 WSW 20 24 11 13 1010.2 1010.1 0.0
26/10:30am 30.9 33.3 24.3 68 4.6 WSW 19 22 10 12 1010.6 1010.5 0.0
26/10:00am 31.4 34.1 24.8 68 4.6 WSW 19 24 10 13 1010.8 1010.7 0.0
26/09:30am 30.9 33.2 24.5 68 4.5 WSW 20 24 11 13 1011.1 1011.0 0.0
26/09:00am 30.7 32.9 23.9 67 4.7 WSW 19 24 10 13 1011.1 1011.0 0.0
26/08:30am 30.8 32.9 23.7 66 4.9 WSW 19 20 10 11 1011.1 1011.0 0.0
26/08:00am 30.3 31.5 22.5 63 5.3 WSW 20 24 11 13 1010.9 1010.8 0.0
26/07:30am 30.0 31.4 22.9 65 4.9 WSW 20 24 11 13 1010.8 1010.7 0.0
26/07:00am 29.5 31.2 23.4 69 4.2 WSW 20 24 11 13 1010.6 1010.5 0.0
26/06:30am 28.7 30.4 23.1 71 3.8 SW 19 20 10 11 1010.4 1010.3 0.0
26/06:00am 28.0 29.8 23.2 75 3.3 SW 19 22 10 12 1010.0 1009.9 0.0
26/05:30am 27.7 29.3 23.9 80 2.6 SW 22 26 12 14 1009.5 1009.4 0.0
26/05:00am 27.6 28.4 23.2 77 3.0 WSW 24 28 13 15 1009.2 1009.1 0.0
26/04:30am 27.8 29.0 23.8 79 2.8 WSW 24 28 13 15 1008.7 1008.6 0.0
26/04:00am 27.6 28.2 23.4 78 2.9 WSW 26 30 14 16 1008.4 1008.3 0.0
26/03:30am 27.9 29.9 24.5 82 2.4 WSW 22 28 12 15 1008.5 1008.4 0.0
26/03:00am 27.5 28.7 23.9 81 2.5 WSW 24 28 13 15 1008.5 1008.4 0.0
26/02:30am 27.4 29.1 24.1 82 2.3 WSW 22 26 12 14 1008.7 1008.6 0.0
26/02:00am 27.6 30.0 24.6 84 2.1 WSW 20 24 11 13 1008.8 1008.7 0.0
26/01:30am 27.5 29.9 24.6 84 2.0 WSW 20 24 11 13 1009.0 1008.9 0.0
26/01:00am 27.5 29.8 24.4 83 2.2 SW 20 24 11 13 1009.4 1009.3 0.0
26/12:30am 27.5 29.4 24.4 83 2.1 SW 22 26 12 14 1009.6 1009.5 0.0
26/12:00am 27.7 29.9 24.9 85 2.0 SW 22 28 12 15 1009.8 1009.7 0.0
 
Date/Time
WST
Temp
°C
App
Temp
°C
Dew
Point
°C
Rel
Hum
%
Delta-T
°C
Wind Press
QNH
hPa
Press
MSL
hPa
Rain since
9am
mm
Dir  Spd
km/h
Gust
km/h
Spd
kts
Gust
kts
25/11:30pm 27.7 30.2 24.7 84 2.1 WSW 20 24 11 13 1010.3 1010.2 0.0
25/11:00pm 27.8 30.2 24.6 83 2.2 WSW 20 24 11 13 1010.5 1010.4 0.0
25/10:30pm 27.8 29.2 24.2 81 2.5 WSW 24 26 13 14 1010.6 1010.5 0.0
25/10:00pm 27.9 29.4 24.3 81 2.5 WSW 24 28 13 15 1010.7 1010.6 0.0
25/09:30pm 28.0 29.4 24.8 83 2.2 WSW 26 30 14 16 1010.5 1010.4 0.0
25/09:00pm 28.1 29.8 24.7 82 2.4 W 24 28 13 15 1010.4 1010.3 0.0
25/08:30pm 28.1 29.7 24.5 81 2.5 W 24 30 13 16 1010.1 1010.0 0.0
25/08:00pm 28.0 29.1 24.4 81 2.5 W 26 30 14 16 1009.9 1009.8 0.0
25/07:30pm 28.1 28.9 24.5 81 2.5 W 28 32 15 17 1009.5 1009.4 0.0
25/07:00pm 28.1 28.8 24.3 80 2.6 W 28 32 15 17 1009.3 1009.2 0.0
25/06:30pm 28.4 29.4 24.8 81 2.5 WNW 28 32 15 17 1009.1 1009.0 0.0
25/06:00pm 28.4 29.8 24.8 81 2.5 WNW 26 30 14 16 1008.8 1008.7 0.0
25/05:30pm 28.6 30.0 24.8 80 2.7 W 26 32 14 17 1008.4 1008.3 0.0
25/05:00pm 29.1 29.8 24.9 78 2.9 W 30 33 16 18 1008.0 1007.9 0.0
25/04:30pm 29.7 30.5 25.0 76 3.3 WNW 30 35 16 19 1007.9 1007.8 0.0
25/04:00pm 30.2 31.0 25.0 73 3.7 W 30 33 16 18 1007.8 1007.7 0.0
25/03:30pm 30.3 30.9 24.7 72 3.9 WNW 30 35 16 19 1007.6 1007.5 0.0
25/03:00pm 30.7 31.3 24.8 71 4.1 WNW 30 35 16 19 1007.7 1007.6 0.0
25/02:30pm 31.2 32.1 25.3 71 4.2 WNW 30 32 16 17 1007.9 1007.8 0.0
25/02:00pm 31.4 32.4 24.8 68 4.6 W 28 33 15 18 1008.0 1007.9 0.0
25/01:30pm 31.4 33.6 25.5 71 4.2 WNW 24 32 13 17 1008.4 1008.3 0.0
25/01:00pm 31.6 33.2 25.2 69 4.5 W 26 32 14 17 1008.6 1008.5 0.0
25/12:30pm 31.3 32.6 24.7 68 4.6 W 26 30 14 16 1009.0 1008.9 0.0
25/12:00pm 31.3 32.8 24.4 66 4.8 W 24 28 13 15 1009.4 1009.3 0.0
25/11:30am 31.0 32.5 24.4 68 4.6 W 24 28 13 15 1009.9 1009.8 0.0
25/11:00am 31.1 32.8 24.0 66 4.9 W 22 26 12 14 1010.3 1010.2 0.0
25/10:30am 30.7 32.7 23.9 67 4.7 W 20 24 11 13 1010.8 1010.7 0.0
25/10:00am 30.7 33.0 24.4 69 4.4 W 20 24 11 13 1011.2 1011.1 0.0
25/09:30am 30.7 32.7 23.9 67 4.7 W 20 26 11 14 1011.4 1011.3 0.0
25/09:00am 30.4 32.7 24.1 69 4.4 WSW 19 22 10 12 1011.5 1011.4 0.0
25/08:30am 30.3 32.7 24.2 70 4.2 WSW 19 22 10 12 1011.5 1011.4 0.0
25/08:00am 29.4 31.9 23.8 72 3.9 WSW 17 20 9 11 1011.4 1011.3 0.0
25/07:30am 29.3 31.8 24.4 75 3.4 WSW 19 20 10 11 1011.3 1011.2 0.0
25/07:00am 28.5 30.6 24.1 77 3.0 WSW 20 26 11 14 1011.1 1011.0 0.0
25/06:30am 28.2 29.9 24.0 78 2.9 WSW 22 26 12 14 1010.6 1010.5 0.0
25/06:00am 27.7 29.4 24.1 81 2.5 WSW 22 26 12 14 1010.2 1010.1 0.0
25/05:30am 27.6 29.9 24.4 83 2.2 SW 20 26 11 14 1009.8 1009.7 0.0
25/05:00am 27.5 29.0 24.4 83 2.2 WSW 24 28 13 15 1009.4 1009.3 0.0
25/04:30am 27.4 28.6 23.8 81 2.5 WSW 24 28 13 15 1009.0 1008.9 0.0
25/04:00am 27.5 29.4 24.4 83 2.2 WSW 22 26 12 14 1008.8 1008.7 0.0
25/03:30am 27.6 29.5 24.4 83 2.2 SW 22 28 12 15 1008.6 1008.5 0.0
25/03:00am 27.5 29.1 23.9 81 2.5 WSW 22 28 12 15 1008.7 1008.6 0.0
25/02:30am 27.6 28.9 24.0 81 2.5 WSW 24 28 13 15 1008.8 1008.7 0.0
25/02:00am 27.7 28.9 23.9 80 2.6 WSW 24 30 13 16 1008.9 1008.8 0.0
25/01:30am 27.8 29.6 24.2 81 2.5 WSW 22 26 12 14 1009.1 1009.0 0.0
25/01:00am 27.9 30.1 23.9 79 2.8 WSW 19 22 10 12 1009.2 1009.1 0.0
25/12:30am 27.9 29.8 23.5 77 3.0 WSW 19 20 10 11 1009.2 1009.1 0.0
25/12:00am 28.0 29.8 23.2 75 3.3 WSW 19 24 10 13 1009.7 1009.6 0.0
 
Date/Time
WST
Temp
°C
App
Temp
°C
Dew
Point
°C
Rel
Hum
%
Delta-T
°C
Wind Press
QNH
hPa
Press
MSL
hPa
Rain since
9am
mm
Dir  Spd
km/h
Gust
km/h
Spd
kts
Gust
kts
24/11:30pm 28.1 30.1 23.0 74 3.5 WSW 17 20 9 11 1009.9 1009.8 0.0
24/11:00pm 28.0 30.0 22.9 74 3.5 WSW 17 20 9 11 1009.9 1009.8 0.0
24/10:30pm 28.1 29.4 22.3 70 3.9 WSW 19 20 10 11 1010.1 1010.0 0.0
24/10:00pm 28.2 29.5 22.4 71 3.9 WSW 19 20 10 11 1010.2 1010.1 0.0
24/09:30pm 28.1 28.8 22.3 70 3.9 W 22 26 12 14 1010.1 1010.0 0.0
24/09:00pm 28.2 28.6 22.4 71 3.9 W 24 28 13 15 1010.2 1010.1 0.0
24/08:30pm 28.4 28.5 22.6 71 3.9 W 26 28 14 15 1010.0 1009.9 0.0
24/08:00pm 28.5 28.8 23.0 72 3.8 W 26 32 14 17 1009.5 1009.4 0.0
24/07:30pm 28.5 28.8 22.3 69 4.2 W 24 30 13 16 1009.3 1009.2 0.0
24/07:00pm 28.7 28.5 22.0 67 4.5 WNW 26 32 14 17 1009.1 1009.0 0.0
24/06:30pm 28.7 28.3 22.4 68 4.3 WNW 28 32 15 17 1008.9 1008.8 0.0
24/06:00pm 28.7 28.3 22.4 68 4.3 WNW 28 33 15 18 1008.3 1008.2 0.0
24/05:30pm 29.0 28.5 22.2 66 4.6 WNW 28 33 15 18 1008.2 1008.1 0.0
24/05:00pm 29.6 29.1 22.1 64 5.1 WNW 28 33 15 18 1008.0 1007.9 0.0
24/04:30pm 30.2 30.2 22.4 63 5.3 WNW 26 30 14 16 1007.5 1007.4 0.0
24/04:00pm 30.6 30.7 21.9 59 5.9 WNW 24 28 13 15 1007.3 1007.2 0.0
24/03:30pm 30.9 31.6 22.2 59 5.9 WNW 22 26 12 14 1007.2 1007.1 0.0
24/03:00pm 31.2 31.6 21.7 57 6.4 WNW 22 26 12 14 1007.3 1007.2 0.0
24/02:30pm 31.5 32.5 22.8 60 6.0 WNW 22 28 12 15 1007.4 1007.3 0.0
24/02:00pm 31.7 32.1 21.8 55 6.7 W 22 26 12 14 1007.7 1007.6 0.0
24/01:30pm 31.8 32.5 21.6 54 6.9 W 20 24 11 13 1007.9 1007.8 0.0
24/01:00pm 31.9 32.4 20.8 51 7.4 WNW 19 22 10 12 1008.3 1008.2 0.0
24/12:30pm 31.9 32.5 21.1 52 7.2 W 19 22 10 12 1008.7 1008.6 0.0
24/12:00pm 31.3 32.2 20.9 54 7.0 WNW 17 22 9 12 1009.1 1009.0 0.0
24/11:30am 31.1 32.2 20.4 53 7.1 W 15 19 8 10 1009.6 1009.5 0.0
24/11:00am 31.5 32.8 20.8 53 7.2 W 15 17 8 9 1010.2 1010.1 0.0
24/10:30am 30.9 32.8 21.4 57 6.4 W 13 17 7 9 1010.8 1010.7 0.0
24/10:00am 30.2 31.9 21.0 58 6.1 W 13 15 7 8 1011.5 1011.4 0.0
24/09:30am 30.6 32.7 21.7 59 6.0 WSW 13 15 7 8 1011.7 1011.6 0.0
24/09:00am 30.2 32.5 21.3 59 6.0 WSW 11 13 6 7 1012.0 1011.9 0.0
24/08:30am 30.1 32.7 22.0 62 5.5 SW 11 15 6 8 1012.1 1012.0 0.0
24/08:00am 30.3 32.1 21.9 60 5.7 SW 15 19 8 10 1012.1 1012.0 0.0
24/07:30am 29.8 31.1 22.3 64 5.1 SW 19 22 10 12 1011.9 1011.8 0.0
24/07:00am 29.0 30.2 22.5 68 4.4 SW 20 26 11 14 1011.7 1011.6 0.0
24/06:30am 28.3 29.1 22.5 71 3.9 SW 22 26 12 14 1011.3 1011.2 0.0

Other Formats:

Comma delimited format used in spreadsheet applications
http://www.bom.gov.au/fwo/IDW60801/IDW60801.94102.axf

JavaScript Object Notation format (JSON) in row-major order
http://www.bom.gov.au/fwo/IDW60801/IDW60801.94102.json